METAR Switzerland - 23 Oct 2017 - 0948 UTC - RocketRoute WX - rrwx.com
LSMA 230850Z VRB02KT 8000 RA FEW026 OVC032 07/06 Q1024 RMK BLU LFSB 230930Z 26011KT 9999 SCT013 BKN046 BKN083 11/08 Q1023 TEMPO 27010G20KT LSZB 230920Z 25004KT 200V330 9999 SCT035 BKN045 08/05 Q1024 NOSIG LSZC 230920Z VRB01KT 7000 -RA BKN009 BKN036 06/05 Q1024 LSMD 230850Z 28005KT 240V330 9999 FEW012 SCT017 OVC021 08/05 Q1023 RMK WHT LSME 230850Z VRB01KT 9999 -RA FEW013 SCT027 OVC032 07/06 Q1024 RERA RMK BLU LSZR 230920Z 27009KT 9999 SCT046 BKN070 09/05 Q1023 NOSIG RMK G LSGG 230920Z 21006KT 9999 -RA FEW009 BKN040 10/08 Q1026 NOSIG LSZG 230920Z 23008KT 7000 -RA BKN007 BKN013 08/07 Q1024 TEMPO 3000 LSGC 230920Z AUTO VRB03KT 9999 BKN007 05/04 Q1023 RERA LSZL 230850Z 07003KT 040V130 CAVOK 15/01 Q1016 RMK BLU LSZA 230920Z 36019KT CAVOK 17/M00 Q1015 NOSIG LSMM 230850Z 26006KT 240V320 9999 -RA SCT017 BKN023 OVC027 07/05 Q1024 RMK WHT LSMP 230850Z 22007KT 9999 -SHRA FEW022 BKN028 OVC038 08/06 Q1025 RMK BLU LSZS 230920Z VRB02KT 7000 -SN SCT036 BKN047 00/M03 Q1018 RMK H LSGS 230920Z VRB03KT 9999 FEW020 SCT050 BKN070 08/05 Q1024 LSZH 230920Z 23005KT 200V260 9999 FEW009 BKN012 BKN045 08/06 Q1023 TEMPO RADZ SCT012

RocketRoute WX - rrwx.com weather for pilots